Time;durP1;ratioP1;P1;durP2;ratioP2;P2;SDS_P1;SDS_P2;PMS_P1;PMS_P2;Temp;Humidity;BMP_temperature;BMP_pressure;BME280_temperature;BME280_humidity;BME280_pressure;Samples;Min_cycle;Max_cycle;Signal;HPM_P1;HPM_P2
2022/06/08 00:00:26;;;;;;;;;1.67;1.00;;;;;22.05;82.82;100794.06;5033169;28;59639;-69
2022/06/08 00:03:02;;;;;;;;;2.33;2.00;;;;;22.04;83.01;100789.63;5035452;28;45434;-69
2022/06/08 00:05:28;;;;;;;;;3.00;2.00;;;;;22.05;83.44;100786.91;5033938;28;45513;-69
2022/06/08 00:07:53;;;;;;;;;3.00;1.33;;;;;22.03;83.14;100778.00;5035730;28;45505;-69
2022/06/08 00:10:19;;;;;;;;;2.33;1.00;;;;;22.05;83.62;100781.53;5034867;28;47478;-69
2022/06/08 00:12:44;;;;;;;;;2.00;2.00;;;;;22.01;84.21;100776.31;5035254;28;45355;-69
2022/06/08 00:15:10;;;;;;;;;1.00;1.00;;;;;21.99;84.04;100776.38;5036458;28;58926;-69
2022/06/08 00:17:36;;;;;;;;;3.00;2.00;;;;;22.00;86.61;100782.63;5036957;28;46332;-69
2022/06/08 00:20:06;;;;;;;;;2.00;2.00;;;;;21.97;85.96;100776.44;5037493;28;68443;-69
2022/06/08 00:22:31;;;;;;;;;3.67;1.33;;;;;21.93;86.82;100772.09;5037946;28;45319;-69
2022/06/08 00:24:57;;;;;;;;;4.00;2.00;;;;;21.92;87.61;100769.47;5038667;28;45469;-70
2022/06/08 00:27:22;;;;;;;;;2.00;1.00;;;;;21.91;88.43;100768.59;5038606;28;45309;-69
2022/06/08 00:29:47;;;;;;;;;4.00;1.00;;;;;21.88;89.56;100774.06;5037638;28;60089;-69
2022/06/08 00:32:13;;;;;;;;;2.00;2.00;;;;;21.84;89.49;100772.44;5037611;28;65257;-69
2022/06/08 00:34:38;;;;;;;;;2.33;2.00;;;;;21.82;89.48;100768.03;5037548;28;56752;-70
2022/06/08 00:37:04;;;;;;;;;6.00;2.67;;;;;21.81;90.43;100760.94;5038514;28;45387;-69
2022/06/08 00:39:29;;;;;;;;;2.00;2.00;;;;;21.78;90.31;100759.22;5038139;28;45736;-69
2022/06/08 00:41:57;;;;;;;;;1.33;1.00;;;;;21.75;90.97;100756.66;5037963;28;45205;-69
2022/06/08 00:44:27;;;;;;;;;2.33;2.00;;;;;21.73;91.08;100757.63;5037279;28;45368;-69
2022/06/08 00:46:53;;;;;;;;;2.33;2.00;;;;;21.69;91.20;100748.81;5036745;28;45493;-68
2022/06/08 00:49:22;;;;;;;;;4.67;1.33;;;;;21.64;90.74;100738.22;5036773;28;45734;-69
2022/06/08 00:51:48;;;;;;;;;2.33;1.00;;;;;21.61;91.52;100740.13;5037432;28;45348;-69
2022/06/08 00:54:20;;;;;;;;;3.67;2.00;;;;;21.61;91.90;100745.50;5037030;28;45469;-69
2022/06/08 00:56:53;;;;;;;;;1.00;1.00;;;;;21.59;92.86;100747.38;5037107;28;45512;-69
2022/06/08 00:59:19;;;;;;;;;1.00;1.00;;;;;21.57;93.23;100736.72;5025999;28;45914;-69
2022/06/08 01:01:45;;;;;;;;;2.33;1.33;;;;;21.56;93.46;100734.94;5036884;28;45582;-69
2022/06/08 01:04:14;;;;;;;;;3.00;1.00;;;;;21.54;92.58;100738.63;5037666;28;46690;-69
2022/06/08 01:06:41;;;;;;;;;3.00;2.00;;;;;21.52;93.37;100727.94;5037864;28;45481;-69
2022/06/08 01:09:19;;;;;;;;;0.33;0.33;;;;;21.50;93.43;100732.47;5037398;28;45938;-69
2022/06/08 01:11:45;;;;;;;;;3.00;2.00;;;;;21.45;93.50;100727.25;5036506;28;45265;-70
2022/06/08 01:14:13;;;;;;;;;2.00;2.00;;;;;21.41;93.95;100725.63;5037710;28;45332;-69
2022/06/08 01:16:40;;;;;;;;;2.00;1.33;;;;;21.39;95.10;100724.78;5037922;28;45473;-70
2022/06/08 01:19:06;;;;;;;;;5.67;2.00;;;;;21.37;94.77;100723.09;5036064;28;45645;-70
2022/06/08 01:21:32;;;;;;;;;5.67;2.67;;;;;21.35;95.53;100725.81;5036423;28;45279;-70
2022/06/08 01:24:03;;;;;;;;;4.33;2.00;;;;;21.34;95.49;100718.69;5037774;28;45118;-69
2022/06/08 01:26:30;;;;;;;;;3.00;1.67;;;;;21.34;95.96;100724.06;5035151;28;45466;-70
2022/06/08 01:29:04;;;;;;;;;3.33;2.00;;;;;21.34;96.94;100707.94;5039114;28;46640;-69
2022/06/08 01:31:34;;;;;;;;;3.33;3.00;;;;;21.33;96.96;100714.25;5036925;28;45233;-69
2022/06/08 01:34:18;;;;;;;;;1.33;1.33;;;;;21.31;97.17;100715.25;5037794;28;45426;-72
2022/06/08 01:36:50;;;;;;;;;4.00;2.00;;;;;21.31;97.99;100721.50;5037716;28;45522;-69
2022/06/08 01:39:26;;;;;;;;;4.33;2.00;;;;;21.30;96.74;100710.78;5035926;28;47499;-69
2022/06/08 01:42:12;;;;;;;;;2.00;2.00;;;;;21.28;96.14;100713.50;5036281;28;45564;-70
2022/06/08 01:48:06;;;;;;;;;3.67;2.00;;;;;21.22;96.63;100726.28;5034088;28;45415;-70
2022/06/08 01:50:32;;;;;;;;;0.00;0.00;;;;;21.18;96.72;100733.56;4994085;28;47500;-70
2022/06/08 01:53:27;;;;;;;;;2.33;2.33;;;;;21.12;97.12;100731.97;5037279;28;45424;-69
2022/06/08 01:55:58;;;;;;;;;5.00;2.33;;;;;21.09;96.75;100717.75;5035833;28;45602;-69
2022/06/08 01:58:39;;;;;;;;;3.00;1.33;;;;;21.07;97.00;100708.88;5035784;28;45339;-69
2022/06/08 02:01:33;;;;;;;;;5.00;2.00;;;;;21.07;97.37;100719.63;5037272;28;46174;-69
2022/06/08 02:04:23;;;;;;;;;3.33;2.00;;;;;21.07;97.05;100708.88;5036356;28;45389;-69
2022/06/08 02:06:54;;;;;;;;;2.33;2.00;;;;;21.06;97.31;100707.13;5036794;28;45187;-70
2022/06/08 02:09:24;;;;;;;;;3.67;2.00;;;;;21.05;97.94;100698.22;5037288;28;45351;-70
2022/06/08 02:11:57;;;;;;;;;1.00;1.00;;;;;21.03;98.91;100697.38;5036304;28;45937;-70
2022/06/08 02:14:29;;;;;;;;;2.00;2.00;;;;;21.03;99.33;100688.44;5030311;28;45514;-69
2022/06/08 02:17:03;;;;;;;;;8.00;2.00;;;;;21.01;100.00;100699.25;5035889;28;45364;-69
2022/06/08 02:19:57;;;;;;;;;3.33;2.00;;;;;21.00;100.00;100697.50;5035322;28;45596;-69
2022/06/08 02:22:25;;;;;;;;;4.00;1.00;;;;;20.99;100.00;100700.25;5030871;28;45814;-69
2022/06/08 02:25:12;;;;;;;;;2.00;2.00;;;;;20.96;100.00;100705.69;5036945;28;45351;-69
2022/06/08 02:27:44;;;;;;;;;6.00;3.00;;;;;20.93;100.00;100710.25;5035039;28;45543;-69
2022/06/08 02:30:22;;;;;;;;;5.00;3.67;;;;;20.83;100.00;100722.22;5035691;28;45315;-69
2022/06/08 02:35:49;;;;;;;;;6.33;3.00;;;;;20.45;100.00;100696.56;5035279;28;45348;-69
2022/06/08 02:38:19;;;;;;;;;4.00;3.00;;;;;20.36;100.00;100699.56;5033432;28;45284;-69
2022/06/08 02:40:48;;;;;;;;;4.67;4.00;;;;;20.32;100.00;100693.41;5035364;28;45540;-70
2022/06/08 02:43:22;;;;;;;;;2.67;2.00;;;;;20.30;100.00;100692.59;5035059;28;46954;-69
2022/06/08 02:45:57;;;;;;;;;3.00;3.00;;;;;20.30;100.00;100694.41;5036027;28;45636;-69
2022/06/08 02:48:22;;;;;;;;;4.33;3.33;;;;;20.31;100.00;100696.16;5035227;28;45365;-69
2022/06/08 02:50:54;;;;;;;;;4.00;2.00;;;;;20.28;100.00;100694.44;5035672;28;55740;-69
2022/06/08 02:53:20;;;;;;;;;2.00;1.67;;;;;20.26;100.00;100687.38;5034977;28;45966;-69
2022/06/08 02:56:00;;;;;;;;;4.00;2.00;;;;;20.23;100.00;100685.66;5036085;28;45368;-69
2022/06/08 02:58:34;;;;;;;;;4.67;4.67;;;;;20.19;100.00;100686.69;5036148;28;45350;-69
2022/06/08 03:01:05;;;;;;;;;4.00;2.00;;;;;20.14;100.00;100672.56;5034919;28;45302;-70
2022/06/08 03:03:38;;;;;;;;;4.33;3.00;;;;;20.12;100.00;100666.34;5034873;28;45601;-69
2022/06/08 03:06:07;;;;;;;;;3.00;3.00;;;;;20.09;100.00;100664.66;5036526;28;45644;-70
2022/06/08 03:08:37;;;;;;;;;3.00;3.00;;;;;20.06;100.00;100656.69;5034944;28;45300;-70
2022/06/08 03:11:05;;;;;;;;;3.67;2.67;;;;;20.01;100.00;100658.63;5036414;28;45167;-69
2022/06/08 03:13:36;;;;;;;;;3.00;1.00;;;;;19.97;100.00;100650.72;5034801;28;46445;-69
2022/06/08 03:16:04;;;;;;;;;4.00;1.33;;;;;19.92;100.00;100644.63;5046269;28;45360;-69
2022/06/08 03:18:30;;;;;;;;;2.33;1.33;;;;;19.88;100.00;100636.69;5035809;28;45536;-69
2022/06/08 03:20:57;;;;;;;;;6.33;2.00;;;;;19.88;100.00;100628.66;5035293;28;56519;-69
2022/06/08 03:23:23;;;;;;;;;2.67;2.67;;;;;19.88;100.00;100628.66;5035381;28;46726;-69
2022/06/08 03:25:49;;;;;;;;;1.67;1.67;;;;;19.87;100.00;100632.28;5035756;28;45509;-69
2022/06/08 03:28:15;;;;;;;;;4.00;2.67;;;;;19.87;100.00;100621.56;5037304;28;45406;-70
2022/06/08 03:30:41;;;;;;;;;5.00;1.33;;;;;19.87;100.00;100618.88;5035882;28;45256;-69
2022/06/08 03:33:08;;;;;;;;;2.33;2.00;;;;;19.88;100.00;100625.09;5035791;28;46307;-70
2022/06/08 03:35:34;;;;;;;;;2.33;2.33;;;;;19.88;100.00;100612.59;5035341;28;45352;-69
2022/06/08 03:37:59;;;;;;;;;4.67;2.67;;;;;19.89;100.00;100611.66;5034518;28;45506;-69
2022/06/08 03:40:25;;;;;;;;;2.33;1.33;;;;;19.90;100.00;100612.53;5035876;28;45275;-69
2022/06/08 03:42:50;;;;;;;;;2.33;2.33;;;;;19.88;100.00;100612.59;5034992;28;46835;-69
2022/06/08 03:45:15;;;;;;;;;4.67;2.67;;;;;19.87;100.00;100610.84;5034311;28;45419;-69
2022/06/08 03:47:44;;;;;;;;;4.33;2.00;;;;;19.85;100.00;100611.78;5035710;28;46210;-69
2022/06/08 03:50:14;;;;;;;;;6.00;2.67;;;;;19.78;100.00;100615.59;5036150;28;45470;-69
2022/06/08 03:52:44;;;;;;;;;5.33;2.33;;;;;19.69;100.00;100611.38;5038626;28;45924;-69
2022/06/08 03:55:10;;;;;;;;;5.33;2.33;;;;;19.65;100.00;100612.38;5039165;28;45432;-70
2022/06/08 03:57:37;;;;;;;;;4.67;2.33;;;;;19.61;100.00;100614.31;5037697;28;45339;-70
2022/06/08 04:00:05;;;;;;;;;4.33;2.67;;;;;19.61;100.00;100603.59;5037786;28;46537;-69
2022/06/08 04:02:30;;;;;;;;;3.33;3.00;;;;;19.61;100.00;100597.34;5037494;28;45437;-69
2022/06/08 04:04:56;;;;;;;;;5.00;3.33;;;;;19.60;100.00;100596.47;5037748;28;66934;-69
2022/06/08 04:07:21;;;;;;;;;3.00;3.00;;;;;19.59;100.00;100591.16;5038933;28;45444;-69
2022/06/08 04:09:46;;;;;;;;;4.00;3.00;;;;;19.57;100.00;100590.28;5039698;28;45225;-70
2022/06/08 04:12:12;;;;;;;;;4.67;2.00;;;;;19.59;100.00;100575.06;5038538;28;45650;-69
2022/06/08 04:14:37;;;;;;;;;6.33;2.33;;;;;19.59;100.00;100577.75;5038875;28;45483;-69
2022/06/08 04:17:03;;;;;;;;;4.00;2.33;;;;;19.58;100.00;100576.84;5038206;28;45278;-69
2022/06/08 04:19:29;;;;;;;;;6.67;3.00;;;;;19.59;100.00;100573.28;5039245;28;45549;-69
2022/06/08 04:21:55;;;;;;;;;4.33;3.33;;;;;19.60;100.00;100569.69;5037007;28;46940;-69
2022/06/08 04:24:21;;;;;;;;;2.00;2.00;;;;;19.59;100.00;100554.53;5038443;28;45352;-69
2022/06/08 04:26:47;;;;;;;;;5.00;3.00;;;;;19.62;100.00;100556.25;5038640;28;45484;-69
2022/06/08 04:29:13;;;;;;;;;10.00;4.33;;;;;19.62;100.00;100557.13;5039483;28;56390;-69
2022/06/08 04:31:38;;;;;;;;;3.00;3.00;;;;;19.60;100.00;100558.06;5031398;28;47101;-69
2022/06/08 04:34:07;;;;;;;;;6.67;3.33;;;;;19.60;100.00;100560.75;5036778;28;60521;-69
2022/06/08 04:36:32;;;;;;;;;3.67;2.00;;;;;19.59;100.00;100556.31;5038473;28;45450;-69
2022/06/08 04:38:59;;;;;;;;;4.33;3.33;;;;;19.60;100.00;100552.72;5036646;28;45402;-68
2022/06/08 04:41:24;;;;;;;;;6.33;3.33;;;;;19.59;100.00;100553.66;5037621;28;46465;-68
2022/06/08 04:43:49;;;;;;;;;4.33;3.00;;;;;19.59;100.00;100551.84;5037697;28;45290;-71
2022/06/08 04:46:16;;;;;;;;;5.33;3.00;;;;;19.59;100.00;100550.97;5035437;28;45883;-70
2022/06/08 04:48:43;;;;;;;;;1.33;1.33;;;;;19.54;100.00;100550.19;5037177;28;46131;-69
2022/06/08 04:51:10;;;;;;;;;5.67;4.00;;;;;19.52;100.00;100544.91;5034853;28;47127;-69
2022/06/08 04:53:36;;;;;;;;;7.67;4.00;;;;;19.50;100.00;100545.88;5037774;28;45509;-68
2022/06/08 04:56:02;;;;;;;;;6.33;3.67;;;;;19.48;100.00;100537.88;5036927;28;45345;-69
2022/06/08 04:58:27;;;;;;;;;3.67;2.67;;;;;19.45;100.00;100534.44;5037929;28;45624;-69
2022/06/08 05:00:53;;;;;;;;;4.00;4.00;;;;;19.42;100.00;100543.41;5035257;28;62897;-68
2022/06/08 05:03:19;;;;;;;;;4.67;2.00;;;;;19.41;100.00;100539.00;5037139;28;45555;-69
2022/06/08 05:05:45;;;;;;;;;3.00;1.33;;;;;19.38;100.00;100531.03;5037593;28;45493;-69
2022/06/08 05:08:10;;;;;;;;;3.67;1.67;;;;;19.37;100.00;100527.50;5036909;28;45486;-69
2022/06/08 05:10:36;;;;;;;;;4.00;3.00;;;;;19.37;100.00;100524.81;5037188;28;46483;-69
2022/06/08 05:13:03;;;;;;;;;3.00;3.00;;;;;19.35;100.00;100521.31;5035988;28;45442;-69
2022/06/08 05:15:32;;;;;;;;;3.00;3.00;;;;;19.32;100.00;100512.50;5035292;28;45502;-69
2022/06/08 05:17:58;;;;;;;;;3.00;3.00;;;;;19.32;100.00;100512.50;5035449;28;45480;-69
2022/06/08 05:20:25;;;;;;;;;3.33;1.33;;;;;19.30;100.00;100503.63;5035254;28;46628;-70
2022/06/08 05:22:50;;;;;;;;;2.67;2.00;;;;;19.30;100.00;100507.19;5036864;28;45365;-69
2022/06/08 05:25:27;;;;;;;;;3.33;3.00;;;;;19.29;100.00;100508.13;5037422;28;45249;-69
2022/06/08 05:27:53;;;;;;;;;3.33;2.00;;;;;19.30;100.00;100511.66;5032911;28;45264;-69
2022/06/08 05:30:19;;;;;;;;;4.00;1.67;;;;;19.32;100.00;100509.81;5036886;28;45777;-69
2022/06/08 05:32:44;;;;;;;;;3.67;2.67;;;;;19.31;100.00;100500.91;5034298;28;46272;-69
2022/06/08 05:35:11;;;;;;;;;2.00;2.00;;;;;19.32;100.00;100505.31;5032674;28;45404;-69
2022/06/08 05:37:37;;;;;;;;;1.67;1.67;;;;;19.34;100.00;100502.63;5036884;28;45500;-69
2022/06/08 05:40:04;;;;;;;;;2.00;2.00;;;;;19.33;100.00;100503.53;5037165;28;46848;-70
2022/06/08 05:42:29;;;;;;;;;3.33;2.00;;;;;19.34;100.00;100510.66;5033064;28;45843;-70
2022/06/08 05:44:57;;;;;;;;;2.33;2.33;;;;;19.35;100.00;100504.38;5032607;28;45557;-70
2022/06/08 05:47:22;;;;;;;;;4.00;3.00;;;;;19.33;100.00;100500.84;5036281;28;45512;-73
2022/06/08 05:49:48;;;;;;;;;1.33;1.33;;;;;19.22;100.00;100503.84;5035899;28;46574;-74
2022/06/08 05:52:13;;;;;;;;;1.67;1.00;;;;;19.12;100.00;100507.72;5032400;28;45509;-73
2022/06/08 05:54:39;;;;;;;;;1.33;1.33;;;;;19.01;100.00;100508.03;5031917;28;45523;-74
2022/06/08 05:57:05;;;;;;;;;1.00;1.00;;;;;18.91;100.00;100514.59;5035837;28;45272;-75
2022/06/08 05:59:30;;;;;;;;;3.00;1.00;;;;;18.80;100.00;100498.84;5032482;28;47494;-75
2022/06/08 06:01:56;;;;;;;;;1.00;0.00;;;;;18.71;100.00;100503.56;5032570;28;57712;-73
2022/06/08 06:04:21;;;;;;;;;1.00;1.00;;;;;18.65;100.00;100503.72;5031697;28;45667;-73
2022/06/08 06:06:47;;;;;;;;;1.33;1.33;;;;;18.57;100.00;100506.56;5027284;28;45580;-73
2022/06/08 06:09:17;;;;;;;;;1.00;1.00;;;;;18.51;100.00;100509.41;5032871;28;46573;-73
2022/06/08 06:11:43;;;;;;;;;3.00;3.00;;;;;18.48;100.00;100509.47;5029548;28;45469;-75
2022/06/08 06:14:09;;;;;;;;;3.00;2.00;;;;;18.45;100.00;100510.47;5032956;28;45553;-70
2022/06/08 06:16:34;;;;;;;;;3.00;2.00;;;;;18.47;100.00;100513.09;5034252;28;45475;-70
2022/06/08 06:19:01;;;;;;;;;1.00;1.00;;;;;18.51;100.00;100515.63;5034070;28;46317;-70
2022/06/08 06:21:26;;;;;;;;;3.00;1.33;;;;;18.56;100.00;100510.19;5035092;28;45494;-70
2022/06/08 06:23:53;;;;;;;;;1.00;1.00;;;;;18.65;100.00;100520.63;5035440;28;45466;-70
2022/06/08 06:26:19;;;;;;;;;0.00;0.00;;;;;18.69;100.00;100513.41;5034651;28;45290;-71
2022/06/08 06:28:44;;;;;;;;;2.00;0.33;;;;;18.72;100.00;100502.66;5037004;28;47457;-71
2022/06/08 06:31:23;;;;;;;;;0.67;0.67;;;;;18.76;100.00;100515.91;5034690;28;45320;-71
2022/06/08 06:33:48;;;;;;;;;1.00;1.00;;;;;18.81;100.00;100518.44;5031565;28;45605;-70
2022/06/08 06:36:14;;;;;;;;;0.00;0.00;;;;;18.87;100.00;100520.06;5034093;28;45654;-70
2022/06/08 06:38:39;;;;;;;;;0.00;0.00;;;;;18.88;100.00;100525.38;5034247;28;46377;-69
2022/06/08 06:41:06;;;;;;;;;0.00;0.00;;;;;18.92;100.00;100528.84;5034173;28;64487;-70
2022/06/08 06:43:32;;;;;;;;;2.33;0.00;;;;;18.97;100.00;100514.41;5032647;28;45822;-70
2022/06/08 06:45:57;;;;;;;;;0.33;0.33;;;;;18.97;100.00;100511.75;5034149;28;45507;-69
2022/06/08 06:48:25;;;;;;;;;0.33;0.33;;;;;18.98;100.00;100515.28;5034141;28;59650;-70
2022/06/08 06:50:51;;;;;;;;;2.00;1.00;;;;;19.01;100.00;100520.53;5033587;28;45460;-70
2022/06/08 06:53:16;;;;;;;;;2.00;1.00;;;;;19.02;100.00;100523.19;5033916;28;45466;-70
2022/06/08 06:55:41;;;;;;;;;0.00;0.00;;;;;19.01;100.00;100524.09;5033493;28;60483;-70
2022/06/08 06:58:07;;;;;;;;;0.00;0.00;;;;;19.04;100.00;100518.66;5032361;28;46437;-69
2022/06/08 07:00:33;;;;;;;;;1.33;1.00;;;;;19.08;100.00;100530.16;5034622;28;45589;-70
2022/06/08 07:02:58;;;;;;;;;0.33;0.33;;;;;19.10;100.00;100529.19;5034308;28;45478;-70
2022/06/08 07:05:28;;;;;;;;;1.33;0.33;;;;;19.12;100.00;100526.44;5033926;28;45603;-70
2022/06/08 07:07:54;;;;;;;;;0.33;0.00;;;;;19.13;100.00;100530.03;5032492;28;46568;-70
2022/06/08 07:10:20;;;;;;;;;0.33;0.33;;;;;19.13;100.00;100528.22;5032695;28;56863;-70
2022/06/08 07:12:45;;;;;;;;;0.33;0.33;;;;;19.12;100.00;100521.09;5034076;28;45413;-70
2022/06/08 07:15:13;;;;;;;;;2.33;0.00;;;;;19.15;100.00;100533.53;5035086;28;45433;-69
2022/06/08 07:17:39;;;;;;;;;0.33;0.33;;;;;19.17;100.00;100526.31;5032922;28;46023;-71
2022/06/08 07:20:05;;;;;;;;;0.33;0.33;;;;;19.14;100.00;100535.34;5032773;28;45586;-70
2022/06/08 07:22:30;;;;;;;;;2.33;0.33;;;;;19.15;100.00;100536.22;5031788;28;46128;-70
2022/06/08 07:24:55;;;;;;;;;0.00;0.00;;;;;19.15;100.00;100522.81;5032418;28;59432;-70
2022/06/08 07:27:22;;;;;;;;;1.00;1.00;;;;;19.15;100.00;100529.06;5033523;28;46550;-70
2022/06/08 07:29:48;;;;;;;;;0.00;0.00;;;;;19.14;100.00;100529.97;5035345;28;45527;-70
2022/06/08 07:32:14;;;;;;;;;0.33;0.33;;;;;19.16;100.00;100538.84;5033646;28;45558;-71
2022/06/08 07:34:39;;;;;;;;;0.33;0.33;;;;;19.14;100.00;100532.66;5034458;28;45457;-70
2022/06/08 07:37:04;;;;;;;;;0.00;0.00;;;;;19.16;100.00;100538.84;5033497;28;67540;-71
2022/06/08 07:39:30;;;;;;;;;1.00;1.00;;;;;19.17;100.00;100540.56;5032007;28;45572;-71
2022/06/08 07:41:55;;;;;;;;;2.00;0.33;;;;;19.17;100.00;100535.22;5032212;28;58383;-71
2022/06/08 07:44:20;;;;;;;;;1.33;0.00;;;;;19.18;100.00;100528.09;5034184;28;45713;-70
2022/06/08 07:46:47;;;;;;;;;1.00;1.00;;;;;19.22;100.00;100530.63;5032485;28;45429;-71
2022/06/08 07:51:59;;;;;;;;;0.00;0.00;;;;;19.31;100.00;100538.38;5033063;28;45544;-69
2022/06/08 07:54:26;;;;;;;;;0.00;0.00;;;;;19.33;100.00;100525.84;5034451;28;45357;-70
2022/06/08 07:56:53;;;;;;;;;0.00;0.00;;;;;19.37;100.00;100540.88;5034275;28;46834;-70
2022/06/08 07:59:21;;;;;;;;;0.00;0.00;;;;;19.37;100.00;100537.31;5034014;28;45402;-70
2022/06/08 08:01:47;;;;;;;;;0.00;0.00;;;;;19.35;100.00;100534.69;5032289;28;45706;-69
2022/06/08 08:04:12;;;;;;;;;1.00;1.00;;;;;19.39;100.00;100532.81;5033521;28;45750;-70
2022/06/08 08:06:37;;;;;;;;;0.00;0.00;;;;;19.44;100.00;100532.66;5032272;28;61118;-69
2022/06/08 08:09:03;;;;;;;;;0.00;0.00;;;;;19.49;100.00;100528.03;5034078;28;45375;-70
2022/06/08 08:11:28;;;;;;;;;0.00;0.00;;;;;19.51;100.00;100527.09;5033704;28;45154;-70
2022/06/08 08:13:54;;;;;;;;;0.00;0.00;;;;;19.56;100.00;100532.31;5032421;28;45449;-69
2022/06/08 08:16:19;;;;;;;;;2.00;0.00;;;;;19.60;100.00;100528.63;5033107;28;68985;-70
2022/06/08 08:18:44;;;;;;;;;1.00;0.00;;;;;19.68;100.00;100528.41;5031893;28;45392;-70
2022/06/08 08:21:10;;;;;;;;;0.00;0.00;;;;;19.78;100.00;100525.38;5030193;28;45514;-69
2022/06/08 08:23:35;;;;;;;;;0.00;0.00;;;;;19.89;100.00;100522.34;5033769;28;45598;-70
2022/06/08 08:26:01;;;;;;;;;0.33;0.00;;;;;19.98;100.00;100508.66;5032596;28;45858;-70
2022/06/08 08:28:26;;;;;;;;;0.00;0.00;;;;;20.05;100.00;100512.88;5034356;28;45466;-69
2022/06/08 08:30:52;;;;;;;;;0.00;0.00;;;;;20.13;100.00;100509.94;5034723;28;45277;-70
2022/06/08 08:33:17;;;;;;;;;0.00;0.00;;;;;20.16;100.00;100509.84;5026872;28;59067;-70
2022/06/08 08:35:43;;;;;;;;;1.33;0.00;;;;;20.20;100.00;100519.53;5014093;28;69270;-69
2022/06/08 08:38:08;;;;;;;;;0.00;0.00;;;;;20.24;100.00;100518.50;5035464;28;47236;-70
2022/06/08 08:40:33;;;;;;;;;0.00;0.00;;;;;20.31;100.00;100514.69;5037827;28;45299;-70
2022/06/08 08:42:59;;;;;;;;;0.00;0.00;;;;;20.41;100.00;100517.94;5035092;28;45642;-70
2022/06/08 08:45:26;;;;;;;;;0.00;0.00;;;;;20.49;100.00;100521.25;5036921;28;46929;-70
2022/06/08 08:48:25;;;;;;;;;0.00;0.00;;;;;20.50;100.00;100522.13;5036903;28;45497;-70
2022/06/08 08:51:19;;;;;;;;;0.00;0.00;;;;;20.53;100.00;100524.69;4989885;28;45496;-71
2022/06/08 08:53:52;;;;;;;;;0.00;0.00;;;;;20.58;100.00;100533.47;5036360;28;45281;-70
2022/06/08 08:56:25;;;;;;;;;0.00;0.00;;;;;20.57;100.00;100537.09;5037408;28;46608;-70
2022/06/08 08:58:51;;;;;;;;;0.67;0.00;;;;;20.49;100.00;100533.78;5039360;28;47187;-70
2022/06/08 09:01:20;;;;;;;;;0.00;0.00;;;;;20.49;100.00;100533.78;5034330;28;45490;-70
2022/06/08 09:03:48;;;;;;;;;0.00;0.00;;;;;20.53;100.00;100538.13;5029557;28;45458;-69
2022/06/08 09:06:19;;;;;;;;;2.00;0.00;;;;;20.58;100.00;100536.16;5034671;28;46554;-70
2022/06/08 09:08:48;;;;;;;;;0.00;0.00;;;;;20.61;100.00;100536.03;5034874;28;45893;-70
2022/06/08 09:11:26;;;;;;;;;0.00;0.00;;;;;20.61;100.00;100533.34;5036111;28;45437;-70
2022/06/08 09:13:57;;;;;;;;;0.00;0.00;;;;;20.67;100.00;100538.53;5035678;28;46465;-69
2022/06/08 09:16:25;;;;;;;;;0.00;0.00;;;;;20.75;100.00;100547.16;5032256;28;46541;-70
2022/06/08 09:18:50;;;;;;;;;2.67;0.00;;;;;20.77;100.00;100549.78;5037023;28;45513;-69
2022/06/08 09:21:26;;;;;;;;;0.00;0.00;;;;;20.81;100.00;100535.31;5036632;28;45344;-69
2022/06/08 09:23:55;;;;;;;;;1.00;1.00;;;;;20.81;100.00;100544.25;5039021;28;45532;-69
2022/06/08 09:26:23;;;;;;;;;0.00;0.00;;;;;20.76;100.00;100531.94;5045841;22;45782;-69
2022/06/08 09:28:59;;;;;;;;;0.67;0.00;;;;;20.82;100.00;100537.94;5033014;28;45450;-69
2022/06/08 09:31:29;;;;;;;;;0.00;0.00;;;;;20.91;100.00;100536.75;5025431;28;45251;-69
2022/06/08 09:34:05;;;;;;;;;0.00;0.00;;;;;20.89;100.00;100527.88;5035664;28;45536;-69
2022/06/08 09:36:30;;;;;;;;;1.00;1.00;;;;;20.85;100.00;100527.13;5033086;28;45770;-69
2022/06/08 09:38:56;;;;;;;;;1.00;1.00;;;;;20.84;100.00;100525.38;5035180;28;63170;-69
2022/06/08 09:41:29;;;;;;;;;1.00;1.00;;;;;20.90;100.00;100526.94;5036197;28;45557;-69
2022/06/08 09:44:25;;;;;;;;;1.00;1.00;;;;;20.93;100.00;100525.03;5017815;28;45660;-69
2022/06/08 09:52:52;;;;;;;;;1.00;1.00;;;;;21.33;100.00;100520.88;5033661;28;45454;-71
2022/06/08 09:55:27;;;;;;;;;1.00;1.00;;;;;21.49;100.00;100515.78;5033470;28;45624;-70
2022/06/08 09:58:01;;;;;;;;;1.00;1.00;;;;;21.67;100.00;100525.81;5035136;28;46103;-70
2022/06/08 10:00:33;;;;;;;;;1.00;1.00;;;;;21.78;100.00;100513.75;5015169;28;45697;-71
2022/06/08 10:03:20;;;;;;;;;0.00;0.00;;;;;21.92;100.00;100522.13;5017286;28;47082;-68
2022/06/08 10:06:05;;;;;;;;;1.00;1.00;;;;;21.89;100.00;100503.44;5035786;28;45390;-69
2022/06/08 10:08:42;;;;;;;;;2.00;1.00;;;;;21.87;100.00;100508.00;5035240;28;47410;-68
2022/06/08 10:11:37;;;;;;;;;2.67;1.00;;;;;21.82;100.00;100505.50;5032320;28;45383;-68
2022/06/08 10:14:16;;;;;;;;;1.00;1.00;;;;;21.67;100.00;100511.50;5017759;28;45463;-68
2022/06/08 10:16:58;;;;;;;;;2.67;2.00;;;;;21.43;100.00;100529.47;5034927;28;45495;-68
2022/06/08 10:19:29;;;;;;;;;7.00;2.00;;;;;20.86;100.00;100541.41;5034911;28;47455;-68
2022/06/08 10:21:57;;;;;;;;;8.67;2.00;;;;;20.42;100.00;100544.69;5010902;28;45412;-68
2022/06/08 10:24:31;;;;;;;;;4.67;2.00;;;;;20.07;100.00;100545.84;5017732;28;45503;-69
2022/06/08 10:26:58;;;;;;;;;5.67;3.00;;;;;19.87;100.00;100545.66;5013995;28;45580;-68
2022/06/08 10:29:23;;;;;;;;;3.33;3.00;;;;;19.72;100.00;100541.66;5014354;28;46629;-68
2022/06/08 10:31:55;;;;;;;;;4.00;2.33;;;;;19.69;100.00;100541.72;5014964;28;45517;-68
2022/06/08 10:34:24;;;;;;;;;5.00;3.33;;;;;19.63;100.00;100541.91;5012623;28;45622;-67
2022/06/08 10:36:52;;;;;;;;;6.00;3.00;;;;;19.67;100.00;100540.03;5013776;28;45361;-69
2022/06/08 10:39:18;;;;;;;;;6.33;3.33;;;;;19.78;100.00;100540.56;5013892;28;45780;-69
2022/06/08 10:44:50;;;;;;;;;5.67;4.00;;;;;19.81;100.00;100532.41;4954870;28;47207;-68
2022/06/08 10:47:30;;;;;;;;;5.00;5.00;;;;;19.81;100.00;100533.28;5003681;28;45579;-68
2022/06/08 10:50:16;;;;;;;;;7.33;5.00;;;;;20.03;100.00;100544.22;5014585;28;46633;-67
2022/06/08 10:52:48;;;;;;;;;6.00;5.00;;;;;20.11;100.00;100536.78;5013368;28;45504;-68
2022/06/08 10:55:14;;;;;;;;;5.00;3.67;;;;;20.08;100.00;100536.00;5015008;28;46013;-68
2022/06/08 10:57:52;;;;;;;;;3.00;3.00;;;;;20.03;100.00;100536.19;5016129;28;45454;-68
2022/06/08 11:00:18;;;;;;;;;3.67;3.67;;;;;20.04;100.00;100539.75;5014284;28;47351;-68
2022/06/08 11:02:48;;;;;;;;;4.33;4.33;;;;;19.95;100.00;100535.53;5015857;28;45501;-68
2022/06/08 11:05:39;;;;;;;;;6.33;5.00;;;;;19.93;100.00;100541.91;5015621;28;45531;-67
2022/06/08 11:08:08;;;;;;;;;5.67;4.67;;;;;19.96;100.00;100539.09;5013446;28;45291;-68
2022/06/08 11:10:43;;;;;;;;;6.67;5.33;;;;;20.07;100.00;100536.94;5013558;28;47987;-68
2022/06/08 11:13:22;;;;;;;;;3.00;3.00;;;;;20.11;100.00;100538.59;5016062;28;45284;-68
2022/06/08 11:15:56;;;;;;;;;4.00;4.00;;;;;19.98;100.00;100548.00;5015545;28;45350;-68
2022/06/08 11:18:51;;;;;;;;;4.33;3.00;;;;;19.92;100.00;100542.78;5028102;28;45458;-68
2022/06/08 11:21:50;;;;;;;;;1.67;0.33;;;;;19.82;100.00;100548.47;5007431;28;46871;-68
2022/06/08 11:24:29;;;;;;;;;4.33;3.00;;;;;19.84;100.00;100538.56;5003175;28;45497;-70
2022/06/08 11:27:00;;;;;;;;;3.67;2.33;;;;;19.99;100.00;100541.69;5009575;28;46647;-67
2022/06/08 11:29:31;;;;;;;;;3.33;1.33;;;;;20.12;100.00;100535.00;5012296;28;45476;-68
2022/06/08 11:31:57;;;;;;;;;2.67;2.33;;;;;20.19;100.00;100527.63;5009390;28;46241;-69
2022/06/08 11:34:29;;;;;;;;;7.00;2.33;;;;;20.26;100.00;100537.22;5004255;28;45538;-69
2022/06/08 11:37:14;;;;;;;;;4.00;2.33;;;;;20.30;100.00;100526.34;5007075;28;45528;-68
2022/06/08 11:40:00;;;;;;;;;3.00;3.00;;;;;20.28;100.00;100536.22;5004369;28;45607;-69
2022/06/08 11:42:51;;;;;;;;;2.33;2.33;;;;;20.19;100.00;100547.28;4995804;28;45723;-69
2022/06/08 11:45:24;;;;;;;;;2.00;1.00;;;;;20.12;100.00;100554.63;4985789;28;45515;-68
2022/06/08 11:47:57;;;;;;;;;2.33;2.33;;;;;20.12;100.00;100548.41;5003261;28;45871;-68